createdAt,value
2023-04-27T00:01:56.196Z,43.88
2023-04-27T00:05:02.611Z,43.29
2023-04-27T00:08:06.382Z,43.66
2023-04-27T00:11:09.012Z,43.39
2023-04-27T00:14:11.771Z,44.79
2023-04-27T00:17:14.490Z,43.75
2023-04-27T00:20:18.239Z,45.22
2023-04-27T00:23:21.233Z,43.62
2023-04-27T00:26:23.470Z,44.56
2023-04-27T00:29:26.621Z,43.84
2023-04-27T00:32:30.155Z,44.02
2023-04-27T00:35:33.331Z,44.22
2023-04-27T00:38:35.689Z,44.93
2023-04-27T00:41:40.690Z,45.19
2023-04-27T00:44:44.303Z,44.51
2023-04-27T00:47:49.003Z,44.21
2023-04-27T00:50:51.440Z,44.24
2023-04-27T00:53:55.995Z,44.35
2023-04-27T00:56:59.600Z,44.07
2023-04-27T01:00:04.620Z,44.21
2023-04-27T01:03:07.681Z,44.59
2023-04-27T01:06:10.597Z,44.86
2023-04-27T01:09:16.554Z,45.46
2023-04-27T01:12:19.096Z,45.01
2023-04-27T01:15:24.475Z,44.42
2023-04-27T01:18:27.118Z,45.26
2023-04-27T01:21:30.587Z,44.60
2023-04-27T01:24:34.140Z,45.32
2023-04-27T01:27:38.597Z,44.83
2023-04-27T01:30:43.396Z,45.61
2023-04-27T01:33:45.916Z,45.43
2023-04-27T01:36:50.930Z,45.16
2023-04-27T01:39:53.235Z,46.02
2023-04-27T01:42:56.224Z,45.01
2023-04-27T01:46:09.800Z,45.22
2023-04-27T01:49:12.907Z,45.29
2023-04-27T01:52:15.773Z,46.25
2023-04-27T01:55:21.131Z,46.12
2023-04-27T01:58:23.567Z,45.66
2023-04-27T02:01:31.539Z,45.70
2023-04-27T02:04:39.439Z,46.60
2023-04-27T02:07:41.911Z,46.22
2023-04-27T02:10:44.618Z,46.29
2023-04-27T02:13:49.446Z,45.86
2023-04-27T02:16:52.162Z,46.11
2023-04-27T02:19:55.223Z,46.80
2023-04-27T02:22:57.814Z,47.23
2023-04-27T02:26:01.806Z,47.78
2023-04-27T02:29:09.282Z,47.29
2023-04-27T02:32:12.248Z,46.94
2023-04-27T02:35:14.662Z,48.74
2023-04-27T02:38:17.312Z,47.34
2023-04-27T02:41:20.111Z,47.71
2023-04-27T02:44:22.478Z,47.77
2023-04-27T02:47:27.025Z,48.53
2023-04-27T02:50:30.592Z,47.99
2023-04-27T02:53:33.217Z,48.20
2023-04-27T02:56:35.577Z,48.60
2023-04-27T02:59:40.430Z,48.98
2023-04-27T03:02:45.167Z,48.79
2023-04-27T03:05:47.893Z,48.47
2023-04-27T03:08:50.701Z,48.44
2023-04-27T03:11:53.436Z,48.41
2023-04-27T03:14:56.446Z,48.85
2023-04-27T03:18:00.001Z,48.50
2023-04-27T03:21:13.357Z,48.91
2023-04-27T03:24:16.632Z,49.68
2023-04-27T03:27:18.951Z,49.39
2023-04-27T03:30:22.056Z,48.78
2023-04-27T03:33:28.184Z,49.27
2023-04-27T03:36:33.444Z,50.03
2023-04-27T03:39:38.343Z,49.16
2023-04-27T03:42:41.154Z,49.44
2023-04-27T03:45:46.407Z,50.12
2023-04-27T03:48:49.192Z,50.05
2023-04-27T03:51:52.075Z,49.93
2023-04-27T03:54:54.657Z,49.54
2023-04-27T03:57:57.066Z,50.04
2023-04-27T04:00:59.655Z,49.74
2023-04-27T04:04:03.220Z,50.25
2023-04-27T04:07:10.439Z,50.56
2023-04-27T04:10:16.527Z,50.34
2023-04-27T04:13:19.604Z,50.31
2023-04-27T04:16:22.390Z,50.46
2023-04-27T04:19:26.853Z,50.64
2023-04-27T04:22:29.454Z,50.60
2023-04-27T04:25:32.831Z,51.38
2023-04-27T04:28:37.166Z,50.89
2023-04-27T04:31:40.086Z,50.67
2023-04-27T04:34:51.178Z,50.81
2023-04-27T04:37:55.159Z,51.57
2023-04-27T04:40:57.792Z,51.32
2023-04-27T04:44:00.642Z,50.66
2023-04-27T04:47:03.694Z,50.62
2023-04-27T04:50:06.813Z,51.05
2023-04-27T04:53:10.691Z,50.14
2023-04-27T04:56:14.454Z,50.10
2023-04-27T04:59:17.606Z,50.42
2023-04-27T05:02:19.877Z,50.29
2023-04-27T05:05:22.535Z,50.54
2023-04-27T05:08:25.047Z,51.26
2023-04-27T05:11:27.846Z,50.76
2023-04-27T05:14:31.154Z,50.67
2023-04-27T05:17:42.386Z,50.27
2023-04-27T05:20:47.043Z,50.17
2023-04-27T05:23:49.678Z,50.31
2023-04-27T05:26:52.223Z,50.61
2023-04-27T05:29:54.818Z,49.75
2023-04-27T05:32:57.212Z,49.93
2023-04-27T05:36:00.110Z,49.63
2023-04-27T05:39:03.515Z,49.88
2023-04-27T05:42:06.311Z,50.23
2023-04-27T05:45:09.105Z,49.95
2023-04-27T05:48:12.099Z,50.66
2023-04-27T05:51:14.541Z,49.98
2023-04-27T05:54:17.294Z,49.26
2023-04-27T05:57:19.673Z,49.30
2023-04-27T06:00:22.700Z,49.67
2023-04-27T06:03:25.930Z,49.49
2023-04-27T06:06:32.466Z,49.13
2023-04-27T06:09:35.473Z,48.88
2023-04-27T06:12:38.426Z,48.85
2023-04-27T06:15:41.078Z,48.04
2023-04-27T06:18:43.413Z,48.59
2023-04-27T06:21:46.431Z,48.00
2023-04-27T06:24:48.699Z,46.88
2023-04-27T06:27:51.441Z,46.24
2023-04-27T06:30:54.030Z,45.44
2023-04-27T06:33:57.379Z,45.12
2023-04-27T06:36:59.680Z,44.34
2023-04-27T06:40:02.325Z,44.79
2023-04-27T06:43:04.904Z,44.03
2023-04-27T06:46:07.586Z,43.71
2023-04-27T06:49:09.939Z,41.98
2023-04-27T06:52:12.521Z,42.58
2023-04-27T06:55:15.185Z,41.58
2023-04-27T06:58:17.874Z,41.28
2023-04-27T07:01:20.214Z,41.14
2023-04-27T07:04:23.047Z,40.23
2023-04-27T07:07:25.576Z,39.55
2023-04-27T07:10:28.357Z,39.30
2023-04-27T07:13:30.691Z,38.99
2023-04-27T07:16:33.431Z,39.59
2023-04-27T07:19:37.169Z,38.33
2023-04-27T07:22:40.494Z,37.90
2023-04-27T07:25:43.574Z,37.26
2023-04-27T07:28:47.333Z,36.93
2023-04-27T07:31:51.918Z,36.15
2023-04-27T07:34:58.120Z,36.49
2023-04-27T07:38:02.691Z,35.31
2023-04-27T07:41:05.852Z,35.80
2023-04-27T07:44:08.160Z,35.82
2023-04-27T07:47:10.953Z,34.46
2023-04-27T07:50:17.038Z,34.73
2023-04-27T07:53:19.873Z,34.01
2023-04-27T07:56:22.266Z,33.47
2023-04-27T07:59:24.966Z,36.29
2023-04-27T08:02:31.715Z,31.74
2023-04-27T08:05:35.159Z,31.25
2023-04-27T08:08:37.735Z,30.11
2023-04-27T08:11:40.831Z,29.41
2023-04-27T08:14:43.107Z,29.39
2023-04-27T08:17:47.211Z,28.93
2023-04-27T08:20:49.430Z,28.04
2023-04-27T08:23:51.960Z,27.55
2023-04-27T08:26:54.248Z,27.05
2023-04-27T08:29:56.837Z,26.44
2023-04-27T08:32:59.210Z,25.42
2023-04-27T08:36:01.872Z,27.06
2023-04-27T08:39:07.755Z,27.06
2023-04-27T08:42:11.747Z,25.45
2023-04-27T08:45:13.950Z,26.19
2023-04-27T08:48:16.708Z,24.59
2023-04-27T08:51:20.259Z,24.78
2023-04-27T08:54:22.845Z,24.31
2023-04-27T08:57:25.102Z,26.69
2023-04-27T09:00:37.700Z,26.96
2023-04-27T09:03:40.093Z,25.68
2023-04-27T09:06:43.191Z,26.60
2023-04-27T09:09:45.982Z,27.58
2023-04-27T09:13:01.418Z,25.82
2023-04-27T09:16:04.003Z,25.95
2023-04-27T09:19:07.153Z,24.77
2023-04-27T09:22:11.341Z,23.63
2023-04-27T09:25:23.738Z,23.04
2023-04-27T09:28:30.987Z,25.39
2023-04-27T09:31:36.680Z,22.56
2023-04-27T09:34:41.110Z,22.00
2023-04-27T09:37:44.859Z,21.51
2023-04-27T09:40:48.243Z,20.88
2023-04-27T09:43:52.869Z,20.77
2023-04-27T09:46:58.836Z,20.94
2023-04-27T09:50:03.167Z,20.89
2023-04-27T09:53:09.881Z,21.53
2023-04-27T09:56:30.985Z,21.33
2023-04-27T10:00:11.084Z,21.61
2023-04-27T10:03:39.338Z,20.99
2023-04-27T10:07:13.022Z,20.75
2023-04-27T10:10:20.624Z,21.04
2023-04-27T10:13:25.217Z,20.64
2023-04-27T10:16:27.899Z,21.69
2023-04-27T10:19:30.360Z,21.06
2023-04-27T10:22:44.131Z,21.37
2023-04-27T10:25:47.598Z,21.49
2023-04-27T10:29:18.188Z,22.29
2023-04-27T10:32:26.096Z,21.52
2023-04-27T10:35:53.299Z,22.26
2023-04-27T10:38:58.667Z,21.50
2023-04-27T10:42:01.434Z,21.69
2023-04-27T10:45:04.220Z,22.00
2023-04-27T10:48:13.113Z,22.69
2023-04-27T10:51:17.665Z,20.97
2023-04-27T10:54:20.739Z,20.90
2023-04-27T10:57:23.204Z,21.19
2023-04-27T11:00:30.861Z,22.39
2023-04-27T11:03:33.261Z,21.86
2023-04-27T11:06:48.498Z,22.06
2023-04-27T11:09:51.273Z,22.40
2023-04-27T11:12:57.100Z,25.64
2023-04-27T11:16:00.351Z,23.44
2023-04-27T11:19:09.164Z,23.53
2023-04-27T11:22:11.672Z,23.40
2023-04-27T11:25:14.344Z,24.07
2023-04-27T11:28:20.532Z,23.68
2023-04-27T11:31:23.247Z,23.65
2023-04-27T11:34:26.779Z,23.04
2023-04-27T11:37:29.812Z,23.37
2023-04-27T11:40:32.400Z,22.08
2023-04-27T11:43:37.161Z,21.47
2023-04-27T11:46:41.438Z,23.14
2023-04-27T11:49:48.299Z,21.18
2023-04-27T11:52:50.762Z,21.19
2023-04-27T11:55:53.737Z,21.72
2023-04-27T11:58:56.110Z,21.62
2023-04-27T12:01:58.779Z,21.76
2023-04-27T12:05:01.801Z,22.76
2023-04-27T12:08:04.576Z,23.18
2023-04-27T12:11:07.270Z,23.42
2023-04-27T12:14:09.995Z,23.16
2023-04-27T12:17:12.792Z,22.92
2023-04-27T12:20:15.376Z,22.49
2023-04-27T12:23:18.010Z,22.66
2023-04-27T12:26:21.557Z,22.09
2023-04-27T12:29:24.686Z,22.02
2023-04-27T12:32:28.041Z,22.50
2023-04-27T12:35:32.178Z,22.73
2023-04-27T12:38:34.667Z,23.06
2023-04-27T12:41:37.448Z,23.32
2023-04-27T12:44:39.761Z,23.48
2023-04-27T12:47:58.308Z,23.84
2023-04-27T12:51:05.046Z,23.80
2023-04-27T12:54:09.626Z,23.40
2023-04-27T12:57:12.163Z,23.42
2023-04-27T13:00:15.492Z,24.02
2023-04-27T13:03:18.069Z,23.92
2023-04-27T13:06:22.819Z,24.15
2023-04-27T13:09:25.568Z,24.42
2023-04-27T13:12:28.168Z,24.19
2023-04-27T13:15:30.523Z,24.50
2023-04-27T13:18:35.026Z,24.01
2023-04-27T13:21:38.019Z,24.45
2023-04-27T13:24:41.203Z,23.62
2023-04-27T13:27:43.650Z,23.75
2023-04-27T13:30:46.326Z,23.36
2023-04-27T13:33:48.759Z,23.40
2023-04-27T13:36:51.462Z,23.54
2023-04-27T13:39:53.840Z,23.74
2023-04-27T13:42:56.523Z,24.10
2023-04-27T13:46:01.204Z,24.25
2023-04-27T13:49:03.989Z,24.36
2023-04-27T13:52:06.362Z,24.78
2023-04-27T13:55:10.474Z,24.93
2023-04-27T13:58:13.778Z,24.55
2023-04-27T14:01:17.146Z,25.52
2023-04-27T14:04:19.932Z,25.26
2023-04-27T14:07:22.707Z,26.18
2023-04-27T14:10:25.404Z,25.80
2023-04-27T14:13:27.732Z,25.12
2023-04-27T14:16:30.714Z,25.27
2023-04-27T14:19:33.558Z,25.19
2023-04-27T14:22:37.023Z,27.43
2023-04-27T14:25:39.454Z,25.52
2023-04-27T14:28:42.155Z,25.21
2023-04-27T14:31:44.875Z,27.11
2023-04-27T14:34:47.653Z,25.27
2023-04-27T14:37:53.503Z,25.11
2023-04-27T14:40:56.249Z,25.83
2023-04-27T14:43:58.888Z,26.28
2023-04-27T14:47:01.609Z,25.65
2023-04-27T14:50:04.567Z,25.74
2023-04-27T14:53:07.160Z,25.75
2023-04-27T14:56:09.709Z,26.11
2023-04-27T14:59:12.455Z,26.52
2023-04-27T15:02:15.116Z,26.68
2023-04-27T15:05:17.775Z,25.76
2023-04-27T15:08:20.988Z,26.73
2023-04-27T15:11:23.787Z,25.83
2023-04-27T15:14:26.248Z,26.85
2023-04-27T15:17:30.663Z,25.91
2023-04-27T15:20:33.078Z,26.54
2023-04-27T15:23:37.250Z,26.45
2023-04-27T15:26:39.990Z,26.52
2023-04-27T15:29:42.561Z,26.78
2023-04-27T15:32:44.877Z,27.12
2023-04-27T15:35:47.610Z,26.30
2023-04-27T15:38:50.480Z,26.30
2023-04-27T15:41:53.060Z,27.70
2023-04-27T15:44:55.666Z,27.83
2023-04-27T15:47:58.475Z,27.68
2023-04-27T15:51:01.077Z,28.70
2023-04-27T15:54:03.945Z,27.90
2023-04-27T15:57:06.274Z,29.01
2023-04-27T16:00:10.439Z,28.28
2023-04-27T16:03:14.286Z,29.19
2023-04-27T16:06:17.272Z,27.79
2023-04-27T16:09:20.238Z,28.93
2023-04-27T16:12:22.875Z,27.33
2023-04-27T16:15:25.365Z,27.22
2023-04-27T16:18:28.020Z,27.67
2023-04-27T16:21:30.518Z,27.45
2023-04-27T16:24:33.166Z,29.06
2023-04-27T16:27:35.672Z,28.09
2023-04-27T16:30:39.001Z,28.97
2023-04-27T16:33:41.895Z,28.21
2023-04-27T16:36:44.678Z,28.36
2023-04-27T16:39:47.009Z,29.56
2023-04-27T16:42:50.245Z,28.50
2023-04-27T16:45:52.643Z,29.54
2023-04-27T16:48:55.921Z,29.42
2023-04-27T16:51:58.329Z,29.83
2023-04-27T16:55:01.030Z,29.27
2023-04-27T16:58:03.333Z,29.92
2023-04-27T17:01:06.154Z,29.52
2023-04-27T17:04:08.762Z,29.96
2023-04-27T17:07:11.782Z,29.60
2023-04-27T17:10:14.311Z,29.62
2023-04-27T17:13:17.458Z,30.43
2023-04-27T17:16:21.738Z,30.60
2023-04-27T17:19:24.604Z,30.71
2023-04-27T17:22:28.399Z,30.10
2023-04-27T17:25:31.150Z,30.64
2023-04-27T17:28:34.351Z,30.98
2023-04-27T17:31:37.224Z,31.49
2023-04-27T17:34:42.441Z,30.87
2023-04-27T17:37:46.039Z,31.09
2023-04-27T17:40:48.518Z,32.37
2023-04-27T17:43:51.409Z,32.01
2023-04-27T17:46:53.897Z,32.47
2023-04-27T17:49:56.615Z,31.83
2023-04-27T17:52:58.968Z,32.79
2023-04-27T17:56:01.867Z,32.80
2023-04-27T17:59:05.612Z,32.96
2023-04-27T18:02:08.323Z,33.46
2023-04-27T18:05:11.082Z,33.18
2023-04-27T18:08:13.463Z,33.60
2023-04-27T18:11:16.273Z,33.00
2023-04-27T18:14:18.562Z,33.79
2023-04-27T18:17:21.589Z,34.32
2023-04-27T18:20:25.628Z,33.98
2023-04-27T18:23:28.746Z,34.13
2023-04-27T18:26:31.270Z,33.92
2023-04-27T18:29:34.124Z,34.23
2023-04-27T18:32:36.557Z,33.86
2023-04-27T18:35:39.202Z,34.51
2023-04-27T18:38:43.025Z,34.28
2023-04-27T18:41:46.097Z,34.61
2023-04-27T18:44:48.429Z,34.96
2023-04-27T18:47:51.277Z,35.23
2023-04-27T18:50:53.920Z,35.43
2023-04-27T18:53:56.526Z,35.21
2023-04-27T18:56:58.864Z,36.01
2023-04-27T19:00:01.665Z,35.84
2023-04-27T19:03:05.137Z,36.12
2023-04-27T19:06:07.835Z,35.99
2023-04-27T19:09:10.260Z,36.51
2023-04-27T19:12:12.928Z,35.41
2023-04-27T19:15:16.560Z,35.79
2023-04-27T19:18:19.319Z,35.50
2023-04-27T19:21:21.718Z,37.88
2023-04-27T19:24:24.373Z,36.36
2023-04-27T19:27:27.304Z,37.47
2023-04-27T19:30:30.057Z,38.11
2023-04-27T19:33:32.487Z,38.09
2023-04-27T19:36:35.089Z,36.94
2023-04-27T19:39:37.365Z,38.12
2023-04-27T19:42:39.989Z,38.49
2023-04-27T19:45:42.966Z,38.59
2023-04-27T19:48:45.672Z,38.66
2023-04-27T19:51:48.038Z,38.57
2023-04-27T19:54:52.581Z,38.39
2023-04-27T19:57:54.806Z,38.31
2023-04-27T20:00:57.593Z,38.51
2023-04-27T20:04:00.268Z,38.37
2023-04-27T20:07:05.038Z,38.83
2023-04-27T20:10:08.487Z,38.64
2023-04-27T20:13:10.818Z,38.72
2023-04-27T20:16:13.730Z,38.92
2023-04-27T20:19:18.954Z,39.61
2023-04-27T20:22:21.992Z,37.99
2023-04-27T20:25:25.916Z,38.88
2023-04-27T20:28:30.337Z,39.38
2023-04-27T20:31:33.120Z,39.26
2023-04-27T20:34:35.879Z,38.64
2023-04-27T20:37:39.395Z,38.77
2023-04-27T20:40:42.117Z,39.77
2023-04-27T20:43:45.578Z,39.98
2023-04-27T20:46:48.680Z,40.13
2023-04-27T20:49:51.301Z,40.72
2023-04-27T20:52:53.904Z,40.61
2023-04-27T20:55:57.145Z,40.62
2023-04-27T20:59:00.128Z,41.13
2023-04-27T21:02:02.894Z,41.38
2023-04-27T21:05:05.825Z,41.10
2023-04-27T21:08:08.453Z,41.72
2023-04-27T21:11:11.941Z,41.54
2023-04-27T21:14:14.561Z,41.19
2023-04-27T21:17:17.696Z,42.63
2023-04-27T21:20:20.132Z,43.25
2023-04-27T21:23:22.836Z,43.11
2023-04-27T21:26:25.313Z,43.76
2023-04-27T21:29:28.106Z,43.43
2023-04-27T21:32:30.647Z,44.07
2023-04-27T21:35:33.405Z,43.55
2023-04-27T21:38:35.749Z,43.91
2023-04-27T21:41:39.303Z,43.68
2023-04-27T21:44:41.617Z,44.03
2023-04-27T21:47:44.464Z,44.68
2023-04-27T21:50:46.863Z,44.05
2023-04-27T21:53:49.476Z,44.38
2023-04-27T21:56:51.778Z,45.42
2023-04-27T21:59:54.401Z,45.00
2023-04-27T22:02:56.846Z,44.87
2023-04-27T22:05:59.649Z,45.05
2023-04-27T22:09:02.383Z,45.58
2023-04-27T22:12:05.252Z,45.44
2023-04-27T22:15:08.206Z,45.70
2023-04-27T22:18:10.855Z,45.87
2023-04-27T22:21:13.705Z,45.21
2023-04-27T22:24:17.504Z,44.92
2023-04-27T22:27:20.673Z,45.55
2023-04-27T22:30:23.321Z,45.40
2023-04-27T22:33:25.892Z,45.59
2023-04-27T22:36:28.828Z,45.92
2023-04-27T22:39:32.588Z,45.66
2023-04-27T22:42:35.075Z,45.62
2023-04-27T22:45:38.808Z,45.22
2023-04-27T22:48:41.986Z,45.20
2023-04-27T22:51:44.641Z,45.57
2023-04-27T22:54:47.267Z,45.70
2023-04-27T22:57:50.131Z,45.36
2023-04-27T23:00:52.782Z,45.98
2023-04-27T23:03:55.200Z,45.59
2023-04-27T23:06:58.090Z,45.96
2023-04-27T23:10:02.986Z,46.39
2023-04-27T23:13:07.298Z,45.82
2023-04-27T23:16:10.102Z,46.16
2023-04-27T23:19:13.673Z,46.37
2023-04-27T23:22:16.283Z,46.14
2023-04-27T23:25:19.034Z,46.45
2023-04-27T23:28:22.484Z,46.38
2023-04-27T23:31:25.123Z,46.54
2023-04-27T23:34:27.575Z,46.74
2023-04-27T23:37:30.154Z,46.22
2023-04-27T23:40:32.481Z,46.78
2023-04-27T23:43:35.331Z,46.41
2023-04-27T23:46:38.148Z,46.19
2023-04-27T23:49:44.344Z,46.78
2023-04-27T23:52:46.654Z,46.06
2023-04-27T23:55:49.264Z,46.41
2023-04-27T23:58:51.636Z,46.66
